Time,TemperatureF,DewpointF,PressureIn,WindDirection,WindDirectionDegrees,WindSpeedMPH,WindSpeedGustMPH,Humidity,HourlyPrecipIn,Conditions,Clouds,dailyrainin,SolarRadiationWatts/m^2,SoftwareType,DateUTC
2013-04-26 00:02:00,51.9,44.6,30.28,SSW,192,3.0,4.0,76,0.00,,,0.01,0,Wunderground v.1.15,2013-04-26 04:02:00,
2013-04-26 00:04:00,51.9,44.6,30.29,SSW,192,3.0,4.0,76,0.00,,,0.00,0,Wunderground v.1.15,2013-04-26 04:04:00,
2013-04-26 00:08:00,51.8,44.8,30.29,SSW,192,3.0,5.0,77,0.00,,,0.00,0,Wunderground v.1.15,2013-04-26 04:08:00,
2013-04-26 00:12:00,51.8,44.8,30.29,SSW,192,2.0,4.0,77,0.00,,,0.00,0,Wunderground v.1.15,2013-04-26 04:12:00,
2013-04-26 00:14:00,51.7,44.7,30.29,SSW,192,2.0,5.0,77,0.00,,,0.00,0,Wunderground v.1.15,2013-04-26 04:14:00,
2013-04-26 00:20:00,51.7,44.7,30.29,SSW,195,3.0,3.0,77,0.00,,,0.00,0,Wunderground v.1.15,2013-04-26 04:20:00,
2013-04-26 00:26:00,51.6,44.6,30.29,SSW,195,2.0,3.0,77,0.00,,,0.00,0,Wunderground v.1.15,2013-04-26 04:26:00,
2013-04-26 00:32:00,51.5,44.9,30.29,SSW,195,1.0,2.0,78,0.00,,,0.00,0,Wunderground v.1.15,2013-04-26 04:32:00,
2013-04-26 00:38:00,51.4,45.1,30.28,SSW,195,1.0,2.0,79,0.00,,,0.00,0,Wunderground v.1.15,2013-04-26 04:38:00,
2013-04-26 00:44:00,51.3,45.0,30.29,SSW,195,1.0,2.0,79,0.00,,,0.00,0,Wunderground v.1.15,2013-04-26 04:44:00,
2013-04-26 00:50:00,51.1,45.1,30.29,SSW,195,0.0,0.0,80,0.00,,,0.00,0,Wunderground v.1.15,2013-04-26 04:50:00,
2013-04-26 00:56:00,51.1,45.1,30.28,SSW,195,0.0,0.0,80,0.00,,,0.00,0,Wunderground v.1.15,2013-04-26 04:56:00,
2013-04-26 01:02:00,50.9,45.3,30.28,SSW,195,0.0,0.0,81,0.00,,,0.00,0,Wunderground v.1.15,2013-04-26 05:02:00,
2013-04-26 01:08:00,50.8,45.2,30.28,SSW,195,0.0,0.0,81,0.00,,,0.00,0,Wunderground v.1.15,2013-04-26 05:08:00,
2013-04-26 01:14:00,50.6,45.0,30.28,SSW,195,0.0,0.0,81,0.00,,,0.00,0,Wunderground v.1.15,2013-04-26 05:14:00,
2013-04-26 01:20:00,50.3,44.7,30.28,SSW,195,0.0,0.0,81,0.00,,,0.00,0,Wunderground v.1.15,2013-04-26 05:20:00,
2013-04-26 01:26:00,50.0,44.1,30.28,SSW,195,0.0,0.0,80,0.00,,,0.00,0,Wunderground v.1.15,2013-04-26 05:26:00,
2013-04-26 01:32:00,49.5,43.6,30.28,SSW,195,0.0,0.0,80,0.00,,,0.00,0,Wunderground v.1.15,2013-04-26 05:32:00,
2013-04-26 01:38:00,49.1,43.2,30.28,SSW,195,0.0,0.0,80,0.00,,,0.00,0,Wunderground v.1.15,2013-04-26 05:38:00,
2013-04-26 01:44:00,48.6,43.0,30.29,SSW,195,0.0,0.0,81,0.00,,,0.00,0,Wunderground v.1.15,2013-04-26 05:44:00,
2013-04-26 01:50:00,48.0,42.8,30.29,SSW,195,0.0,0.0,82,0.00,,,0.00,0,Wunderground v.1.15,2013-04-26 05:50:00,
2013-04-26 01:56:00,47.4,42.5,30.29,SSW,195,0.0,0.0,83,0.00,,,0.00,0,Wunderground v.1.15,2013-04-26 05:56:00,
2013-04-26 02:02:00,46.9,42.3,30.29,SSW,195,0.0,0.0,84,0.00,,,0.00,0,Wunderground v.1.15,2013-04-26 06:02:00,
2013-04-26 02:08:00,46.6,42.0,30.29,SSW,195,0.0,0.0,84,0.00,,,0.00,0,Wunderground v.1.15,2013-04-26 06:08:00,
2013-04-26 02:14:00,46.3,41.7,30.29,SSW,195,0.0,0.0,84,0.00,,,0.00,0,Wunderground v.1.15,2013-04-26 06:14:00,
2013-04-26 02:20:00,46.0,41.7,30.28,SSW,195,0.0,0.0,85,0.00,,,0.00,0,Wunderground v.1.15,2013-04-26 06:20:00,
2013-04-26 02:26:00,45.7,41.4,30.28,SSW,195,0.0,0.0,85,0.00,,,0.00,0,Wunderground v.1.15,2013-04-26 06:26:00,
2013-04-26 02:32:00,45.5,41.3,30.28,SSW,195,0.0,0.0,85,0.00,,,0.00,0,Wunderground v.1.15,2013-04-26 06:32:00,
2013-04-26 02:38:00,45.3,41.4,30.29,SSW,195,0.0,0.0,86,0.00,,,0.00,0,Wunderground v.1.15,2013-04-26 06:38:00,
2013-04-26 02:44:00,45.0,41.1,30.29,SSW,195,0.0,0.0,86,0.00,,,0.00,0,Wunderground v.1.15,2013-04-26 06:44:00,
2013-04-26 02:50:00,44.8,41.2,30.29,SSW,195,0.0,0.0,87,0.00,,,0.00,0,Wunderground v.1.15,2013-04-26 06:50:00,
2013-04-26 02:56:00,44.5,40.9,30.29,SSW,195,0.0,0.0,87,0.00,,,0.00,0,Wunderground v.1.15,2013-04-26 06:56:00,
2013-04-26 03:02:00,44.3,41.0,30.29,SSW,195,0.0,0.0,88,0.00,,,0.00,0,Wunderground v.1.15,2013-04-26 07:02:00,
2013-04-26 03:08:00,44.0,40.7,30.29,SSW,195,0.0,0.0,88,0.00,,,0.00,0,Wunderground v.1.15,2013-04-26 07:08:00,
2013-04-26 03:14:00,43.8,40.5,30.29,SSW,195,0.0,0.0,88,0.00,,,0.00,0,Wunderground v.1.15,2013-04-26 07:14:00,
2013-04-26 03:20:00,43.5,40.2,30.29,SSW,195,0.0,0.0,88,0.00,,,0.00,0,Wunderground v.1.15,2013-04-26 07:20:00,
2013-04-26 03:26:00,43.2,39.9,30.29,SSW,195,0.0,0.0,88,0.00,,,0.00,0,Wunderground v.1.15,2013-04-26 07:26:00,
2013-04-26 03:32:00,43.0,40.0,30.29,SSW,195,0.0,0.0,89,0.00,,,0.00,0,Wunderground v.1.15,2013-04-26 07:32:00,
2013-04-26 03:38:00,42.7,39.7,30.29,SSW,195,0.0,0.0,89,0.00,,,0.00,0,Wunderground v.1.15,2013-04-26 07:38:00,
2013-04-26 03:44:00,42.6,39.6,30.30,SSW,195,0.0,0.0,89,0.00,,,0.00,0,Wunderground v.1.15,2013-04-26 07:44:00,
2013-04-26 03:50:00,42.4,39.7,30.30,SSW,195,0.0,0.0,90,0.00,,,0.00,0,Wunderground v.1.15,2013-04-26 07:50:00,
2013-04-26 03:56:00,42.3,39.6,30.30,SSW,195,0.0,0.0,90,0.00,,,0.00,0,Wunderground v.1.15,2013-04-26 07:56:00,
2013-04-26 04:02:00,42.1,39.4,30.30,SSW,195,0.0,0.0,90,0.00,,,0.00,0,Wunderground v.1.15,2013-04-26 08:02:00,
2013-04-26 04:08:00,41.9,39.2,30.30,SSW,195,0.0,0.0,90,0.00,,,0.00,0,Wunderground v.1.15,2013-04-26 08:08:00,
2013-04-26 04:14:00,41.7,39.0,30.30,SSW,195,0.0,0.0,90,0.00,,,0.00,0,Wunderground v.1.15,2013-04-26 08:14:00,
2013-04-26 04:20:00,41.5,38.8,30.30,SSW,195,0.0,0.0,90,0.00,,,0.00,0,Wunderground v.1.15,2013-04-26 08:20:00,
2013-04-26 04:26:00,41.2,38.5,30.30,SSW,195,0.0,0.0,90,0.00,,,0.00,0,Wunderground v.1.15,2013-04-26 08:26:00,
2013-04-26 04:32:00,41.1,38.4,30.31,SSW,195,0.0,0.0,90,0.00,,,0.00,0,Wunderground v.1.15,2013-04-26 08:32:00,
2013-04-26 04:38:00,40.8,38.4,30.31,SSW,195,0.0,0.0,91,0.00,,,0.00,0,Wunderground v.1.15,2013-04-26 08:38:00,
2013-04-26 04:44:00,40.7,38.3,30.31,SSW,195,0.0,0.0,91,0.00,,,0.00,0,Wunderground v.1.15,2013-04-26 08:44:00,
2013-04-26 04:50:00,40.5,38.1,30.31,SSW,195,0.0,0.0,91,0.00,,,0.00,0,Wunderground v.1.15,2013-04-26 08:50:00,
2013-04-26 04:56:00,40.4,38.0,30.31,SSW,195,0.0,0.0,91,0.00,,,0.00,0,Wunderground v.1.15,2013-04-26 08:56:00,
2013-04-26 05:02:00,40.3,37.9,30.32,SSW,195,0.0,0.0,91,0.00,,,0.00,0,Wunderground v.1.15,2013-04-26 09:02:00,
2013-04-26 05:08:00,40.2,37.8,30.32,SSW,195,0.0,0.0,91,0.00,,,0.00,0,Wunderground v.1.15,2013-04-26 09:08:00,
2013-04-26 05:14:00,40.0,37.6,30.32,SSW,195,0.0,0.0,91,0.00,,,0.00,0,Wunderground v.1.15,2013-04-26 09:14:00,
2013-04-26 05:20:00,40.0,37.6,30.32,SSW,195,0.0,0.0,91,0.00,,,0.00,0,Wunderground v.1.15,2013-04-26 09:20:00,
2013-04-26 05:26:00,39.9,37.8,30.32,SSW,195,0.0,0.0,92,0.00,,,0.00,0,Wunderground v.1.15,2013-04-26 09:26:00,
2013-04-26 05:32:00,39.9,37.5,30.33,SSW,195,0.0,0.0,91,0.00,,,0.00,0,Wunderground v.1.15,2013-04-26 09:32:00,
2013-04-26 05:38:00,39.8,37.7,30.33,SSW,195,0.0,0.0,92,0.00,,,0.00,0,Wunderground v.1.15,2013-04-26 09:38:00,
2013-04-26 05:44:00,39.7,37.6,30.33,SSW,195,0.0,0.0,92,0.00,,,0.00,0,Wunderground v.1.15,2013-04-26 09:44:00,
2013-04-26 05:50:00,39.6,37.5,30.33,SSW,195,0.0,0.0,92,0.00,,,0.00,0,Wunderground v.1.15,2013-04-26 09:50:00,
2013-04-26 05:56:00,39.5,37.4,30.34,SSW,195,0.0,0.0,92,0.00,,,0.00,0,Wunderground v.1.15,2013-04-26 09:56:00,
2013-04-26 06:02:00,39.5,37.4,30.34,SSW,195,0.0,0.0,92,0.00,,,0.00,0,Wunderground v.1.15,2013-04-26 10:02:00,
2013-04-26 06:08:00,39.6,37.5,30.34,SSW,195,0.0,0.0,92,0.00,,,0.00,0,Wunderground v.1.15,2013-04-26 10:08:00,
2013-04-26 06:14:00,39.6,37.5,30.34,SSW,195,0.0,0.0,92,0.00,,,0.00,7,Wunderground v.1.15,2013-04-26 10:14:00,
2013-04-26 06:20:00,39.6,37.7,30.34,SSW,195,0.0,0.0,93,0.00,,,0.00,11,Wunderground v.1.15,2013-04-26 10:20:00,
2013-04-26 06:26:00,39.6,37.7,30.35,SSW,195,0.0,0.0,93,0.00,,,0.00,16,Wunderground v.1.15,2013-04-26 10:26:00,
2013-04-26 06:32:00,39.7,37.8,30.35,SSW,195,0.0,0.0,93,0.00,,,0.00,18,Wunderground v.1.15,2013-04-26 10:32:00,
2013-04-26 06:38:00,40.0,38.1,30.36,SSW,195,0.0,0.0,93,0.00,,,0.00,23,Wunderground v.1.15,2013-04-26 10:38:00,
2013-04-26 06:44:00,40.5,38.9,30.36,SSW,195,0.0,0.0,94,0.00,,,0.00,28,Wunderground v.1.15,2013-04-26 10:44:00,
2013-04-26 06:50:00,40.9,39.3,30.36,SSW,195,0.0,0.0,94,0.00,,,0.00,33,Wunderground v.1.15,2013-04-26 10:50:00,
2013-04-26 06:56:00,41.5,39.9,30.36,SSW,195,0.0,0.0,94,0.00,,,0.00,35,Wunderground v.1.15,2013-04-26 10:56:00,
2013-04-26 07:02:00,41.8,40.2,30.36,SSW,195,0.0,0.0,94,0.00,,,0.00,35,Wunderground v.1.15,2013-04-26 11:02:00,
2013-04-26 07:08:00,42.0,40.4,30.37,SSW,195,0.0,0.0,94,0.00,,,0.00,35,Wunderground v.1.15,2013-04-26 11:08:00,
2013-04-26 07:14:00,42.3,40.7,30.37,SSW,195,0.0,0.0,94,0.00,,,0.00,35,Wunderground v.1.15,2013-04-26 11:14:00,
2013-04-26 07:20:00,42.6,41.3,30.37,SSW,195,0.0,0.0,95,0.00,,,0.00,42,Wunderground v.1.15,2013-04-26 11:20:00,
2013-04-26 07:26:00,42.8,41.5,30.37,SSW,195,0.0,0.0,95,0.00,,,0.00,46,Wunderground v.1.15,2013-04-26 11:26:00,
2013-04-26 07:32:00,43.4,42.1,30.37,SSW,195,0.0,0.0,95,0.00,,,0.00,47,Wunderground v.1.15,2013-04-26 11:32:00,
2013-04-26 07:38:00,43.8,42.5,30.37,SSW,195,0.0,0.0,95,0.00,,,0.00,51,Wunderground v.1.15,2013-04-26 11:38:00,
2013-04-26 07:44:00,44.2,42.9,30.38,SSW,195,0.0,0.0,95,0.00,,,0.00,56,Wunderground v.1.15,2013-04-26 11:44:00,
2013-04-26 07:50:00,44.7,43.1,30.38,NNE,32,1.0,1.0,94,0.00,,,0.00,58,Wunderground v.1.15,2013-04-26 11:50:00,
2013-04-26 07:56:00,45.5,43.3,30.38,NE,36,1.0,2.0,92,0.00,,,0.00,81,Wunderground v.1.15,2013-04-26 11:56:00,
2013-04-26 08:02:00,46.4,43.0,30.38,ENE,61,2.0,6.0,88,0.00,,,0.00,97,Wunderground v.1.15,2013-04-26 12:02:00,
2013-04-26 08:08:00,47.3,43.0,30.38,NE,40,2.0,6.0,85,0.00,,,0.00,302,Wunderground v.1.15,2013-04-26 12:08:00,
2013-04-26 08:14:00,48.2,42.3,30.38,NNE,30,2.0,4.0,80,0.00,,,0.00,325,Wunderground v.1.15,2013-04-26 12:14:00,
2013-04-26 08:20:00,49.3,42.1,30.38,NNE,19,2.0,4.0,76,0.00,,,0.00,360,Wunderground v.1.15,2013-04-26 12:20:00,
2013-04-26 08:26:00,50.3,42.0,30.39,NNW,348,1.0,4.0,73,0.00,,,0.00,378,Wunderground v.1.15,2013-04-26 12:26:00,
2013-04-26 08:32:00,51.3,41.1,30.38,NNE,31,2.0,2.0,68,0.00,,,0.00,397,Wunderground v.1.15,2013-04-26 12:32:00,
2013-04-26 08:38:00,52.3,41.3,30.38,North,5,3.0,6.0,66,0.00,,,0.00,415,Wunderground v.1.15,2013-04-26 12:38:00,
2013-04-26 08:44:00,53.2,40.5,30.38,NE,48,2.0,5.0,62,0.00,,,0.00,438,Wunderground v.1.15,2013-04-26 12:44:00,
2013-04-26 08:50:00,54.0,40.4,30.38,NE,38,3.0,5.0,60,0.00,,,0.00,457,Wunderground v.1.15,2013-04-26 12:50:00,
2013-04-26 08:56:00,54.8,39.8,30.38,NE,46,3.0,6.0,57,0.00,,,0.00,476,Wunderground v.1.15,2013-04-26 12:56:00,
2013-04-26 09:02:00,55.5,39.6,30.38,East,82,3.0,5.0,55,0.00,,,0.00,494,Wunderground v.1.15,2013-04-26 13:02:00,
2013-04-26 09:08:00,56.1,39.2,30.38,NE,42,3.0,5.0,53,0.00,,,0.00,515,Wunderground v.1.15,2013-04-26 13:08:00,
2013-04-26 09:14:00,56.8,39.4,30.38,NE,47,3.0,6.0,52,0.00,,,0.00,534,Wunderground v.1.15,2013-04-26 13:14:00,
2013-04-26 09:20:00,57.5,39.0,30.39,NE,56,3.0,3.0,50,0.00,,,0.00,555,Wunderground v.1.15,2013-04-26 13:20:00,
2013-04-26 09:26:00,58.0,38.9,30.39,NE,53,2.0,6.0,49,0.00,,,0.00,575,Wunderground v.1.15,2013-04-26 13:26:00,
2013-04-26 09:32:00,58.6,39.0,30.39,NW,305,3.0,6.0,48,0.00,,,0.00,592,Wunderground v.1.15,2013-04-26 13:32:00,
2013-04-26 09:38:00,59.0,38.8,30.39,NNE,19,4.0,8.0,47,0.00,,,0.00,610,Wunderground v.1.15,2013-04-26 13:38:00,
2013-04-26 09:44:00,59.4,40.2,30.39,West,273,4.0,4.0,49,0.00,,,0.00,626,Wunderground v.1.15,2013-04-26 13:44:00,
2013-04-26 09:50:00,59.6,40.4,30.39,NNE,28,4.0,4.0,49,0.00,,,0.00,642,Wunderground v.1.15,2013-04-26 13:50:00,
2013-04-26 09:56:00,60.2,38.8,30.39,West,278,4.0,6.0,45,0.00,,,0.00,656,Wunderground v.1.15,2013-04-26 13:56:00,
2013-04-26 10:02:00,60.6,39.7,30.39,NE,37,4.0,5.0,46,0.00,,,0.00,670,Wunderground v.1.15,2013-04-26 14:02:00,
2013-04-26 10:08:00,60.8,38.1,30.39,NW,312,5.0,8.0,43,0.00,,,0.00,687,Wunderground v.1.15,2013-04-26 14:08:00,
2013-04-26 10:14:00,60.7,38.6,30.39,NNE,22,5.0,8.0,44,0.00,,,0.00,696,Wunderground v.1.15,2013-04-26 14:14:00,
2013-04-26 10:20:00,61.3,39.8,30.39,ENE,63,3.0,4.0,45,0.00,,,0.00,710,Wunderground v.1.15,2013-04-26 14:20:00,
2013-04-26 10:26:00,61.5,38.2,30.39,NE,41,3.0,7.0,42,0.00,,,0.00,726,Wunderground v.1.15,2013-04-26 14:26:00,
2013-04-26 10:32:00,62.0,37.4,30.39,NW,310,3.0,4.0,40,0.00,,,0.00,740,Wunderground v.1.15,2013-04-26 14:32:00,
2013-04-26 10:38:00,61.8,37.2,30.40,WNW,293,5.0,7.0,40,0.00,,,0.00,752,Wunderground v.1.15,2013-04-26 14:38:00,
2013-04-26 10:44:00,62.1,38.1,30.40,WNW,292,5.0,7.0,41,0.00,,,0.00,763,Wunderground v.1.15,2013-04-26 14:44:00,
2013-04-26 10:50:00,61.9,36.7,30.40,East,95,5.0,7.0,39,0.00,,,0.00,777,Wunderground v.1.15,2013-04-26 14:50:00,
2013-04-26 10:56:00,62.1,38.7,30.39,WNW,294,4.0,7.0,42,0.00,,,0.00,789,Wunderground v.1.15,2013-04-26 14:56:00,
2013-04-26 11:02:00,63.0,38.9,30.40,North,355,3.0,7.0,41,0.00,,,0.00,796,Wunderground v.1.15,2013-04-26 15:02:00,
2013-04-26 11:08:00,63.1,35.7,30.40,NE,35,4.0,8.0,36,0.00,,,0.00,810,Wunderground v.1.15,2013-04-26 15:08:00,
2013-04-26 11:14:00,63.0,37.0,30.39,West,261,5.0,7.0,38,0.00,,,0.00,823,Wunderground v.1.15,2013-04-26 15:14:00,
2013-04-26 11:20:00,63.2,37.2,30.39,West,279,4.0,8.0,38,0.00,,,0.00,837,Wunderground v.1.15,2013-04-26 15:20:00,
2013-04-26 11:26:00,63.3,37.2,30.40,WNW,297,4.0,8.0,38,0.00,,,0.00,840,Wunderground v.1.15,2013-04-26 15:26:00,
2013-04-26 11:32:00,63.3,37.2,30.40,West,261,4.0,6.0,38,0.00,,,0.00,842,Wunderground v.1.15,2013-04-26 15:32:00,
2013-04-26 11:38:00,63.1,35.7,30.39,WNW,298,4.0,6.0,36,0.00,,,0.00,853,Wunderground v.1.15,2013-04-26 15:38:00,
2013-04-26 11:44:00,63.1,35.0,30.39,NW,310,4.0,4.0,35,0.00,,,0.00,860,Wunderground v.1.15,2013-04-26 15:44:00,
2013-04-26 11:50:00,63.4,36.0,30.39,NW,307,3.0,3.0,36,0.00,,,0.00,870,Wunderground v.1.15,2013-04-26 15:50:00,
2013-04-26 11:56:00,63.5,35.3,30.39,NNE,27,3.0,6.0,35,0.00,,,0.00,877,Wunderground v.1.15,2013-04-26 15:56:00,
2013-04-26 12:02:00,63.9,36.4,30.39,West,273,3.0,8.0,36,0.00,,,0.00,881,Wunderground v.1.15,2013-04-26 16:02:00,
2013-04-26 12:08:00,64.2,36.0,30.39,WNW,286,3.0,8.0,35,0.00,,,0.00,886,Wunderground v.1.15,2013-04-26 16:08:00,
2013-04-26 12:14:00,64.2,36.7,30.39,WSW,248,4.0,5.0,36,0.00,,,0.00,886,Wunderground v.1.15,2013-04-26 16:14:00,
2013-04-26 12:20:00,64.9,36.6,30.38,South,184,3.0,3.0,35,0.00,,,0.00,893,Wunderground v.1.15,2013-04-26 16:20:00,
2013-04-26 12:26:00,65.1,34.5,30.38,NE,37,1.0,3.0,32,0.00,,,0.00,896,Wunderground v.1.15,2013-04-26 16:26:00,
2013-04-26 12:32:00,65.1,36.8,30.38,West,281,3.0,4.0,35,0.00,,,0.00,900,Wunderground v.1.15,2013-04-26 16:32:00,
2013-04-26 12:38:00,64.6,35.6,30.38,WNW,282,5.0,7.0,34,0.00,,,0.00,902,Wunderground v.1.15,2013-04-26 16:38:00,
2013-04-26 12:44:00,64.6,37.0,30.38,WSW,242,6.0,6.0,36,0.00,,,0.00,904,Wunderground v.1.15,2013-04-26 16:44:00,
2013-04-26 12:50:00,64.3,34.6,30.38,WNW,290,6.0,8.0,33,0.00,,,0.00,905,Wunderground v.1.15,2013-04-26 16:50:00,
2013-04-26 12:56:00,64.3,38.8,30.37,WNW,284,6.0,8.0,39,0.00,,,0.00,898,Wunderground v.1.15,2013-04-26 16:56:00,
2013-04-26 13:02:00,64.4,38.2,30.37,WSW,240,6.0,10.0,38,0.00,,,0.00,900,Wunderground v.1.15,2013-04-26 17:02:00,
2013-04-26 13:08:00,64.5,39.0,30.37,West,261,6.0,10.0,39,0.00,,,0.00,900,Wunderground v.1.15,2013-04-26 17:08:00,
2013-04-26 13:14:00,64.7,37.1,30.37,WSW,237,6.0,6.0,36,0.00,,,0.00,898,Wunderground v.1.15,2013-04-26 17:14:00,
2013-04-26 13:20:00,64.5,38.3,30.37,WNW,285,7.0,7.0,38,0.00,,,0.00,900,Wunderground v.1.15,2013-04-26 17:20:00,
2013-04-26 13:26:00,64.6,37.0,30.37,West,272,6.0,9.0,36,0.00,,,0.00,895,Wunderground v.1.15,2013-04-26 17:26:00,
2013-04-26 13:32:00,64.4,36.1,30.37,SW,218,7.0,7.0,35,0.00,,,0.00,889,Wunderground v.1.15,2013-04-26 17:32:00,
2013-04-26 13:38:00,64.4,37.5,30.37,SW,224,8.0,8.0,37,0.00,,,0.00,884,Wunderground v.1.15,2013-04-26 17:38:00,
2013-04-26 13:44:00,64.3,37.5,30.37,WNW,297,8.0,8.0,37,0.00,,,0.00,877,Wunderground v.1.15,2013-04-26 17:44:00,
2013-04-26 13:50:00,64.2,36.7,30.36,WSW,258,7.0,7.0,36,0.00,,,0.00,874,Wunderground v.1.15,2013-04-26 17:50:00,
2013-04-26 13:56:00,64.2,36.0,30.36,West,271,8.0,10.0,35,0.00,,,0.00,868,Wunderground v.1.15,2013-04-26 17:56:00,
2013-04-26 14:02:00,64.0,36.5,30.37,West,271,7.0,7.0,36,0.00,,,0.00,863,Wunderground v.1.15,2013-04-26 18:02:00,
2013-04-26 14:08:00,63.9,36.4,30.36,West,267,6.0,9.0,36,0.00,,,0.00,856,Wunderground v.1.15,2013-04-26 18:08:00,
2013-04-26 14:14:00,63.8,37.7,30.36,SW,226,6.0,8.0,38,0.00,,,0.00,847,Wunderground v.1.15,2013-04-26 18:14:00,
2013-04-26 14:20:00,64.3,36.8,30.36,WSW,254,6.0,6.0,36,0.00,,,0.00,838,Wunderground v.1.15,2013-04-26 18:20:00,
2013-04-26 14:26:00,64.3,36.8,30.36,WSW,257,6.0,6.0,36,0.00,,,0.00,830,Wunderground v.1.15,2013-04-26 18:26:00,
2013-04-26 14:32:00,64.1,36.6,30.36,West,280,6.0,6.0,36,0.00,,,0.00,824,Wunderground v.1.15,2013-04-26 18:32:00,
2013-04-26 14:38:00,63.9,35.7,30.36,West,267,7.0,9.0,35,0.00,,,0.00,805,Wunderground v.1.15,2013-04-26 18:38:00,
2013-04-26 14:44:00,64.3,38.1,30.36,SW,227,6.0,10.0,38,0.00,,,0.00,795,Wunderground v.1.15,2013-04-26 18:44:00,
2013-04-26 14:50:00,64.3,36.8,30.36,WSW,248,7.0,8.0,36,0.00,,,0.00,788,Wunderground v.1.15,2013-04-26 18:50:00,
2013-04-26 14:56:00,64.5,38.3,30.36,West,281,6.0,10.0,38,0.00,,,0.00,775,Wunderground v.1.15,2013-04-26 18:56:00,
2013-04-26 15:02:00,64.8,37.2,30.36,SW,215,5.0,6.0,36,0.00,,,0.00,763,Wunderground v.1.15,2013-04-26 19:02:00,
2013-04-26 15:08:00,64.7,37.8,30.36,SW,236,6.0,12.0,37,0.00,,,0.00,749,Wunderground v.1.15,2013-04-26 19:08:00,
2013-04-26 15:14:00,64.5,36.2,30.36,WSW,258,7.0,7.0,35,0.00,,,0.00,740,Wunderground v.1.15,2013-04-26 19:14:00,
2013-04-26 15:20:00,64.4,36.8,30.35,WNW,289,6.0,6.0,36,0.00,,,0.00,733,Wunderground v.1.15,2013-04-26 19:20:00,
2013-04-26 15:26:00,64.3,36.8,30.35,WNW,290,6.0,10.0,36,0.00,,,0.00,717,Wunderground v.1.15,2013-04-26 19:26:00,
2013-04-26 15:32:00,64.4,37.5,30.35,WSW,250,5.0,6.0,37,0.00,,,0.00,707,Wunderground v.1.15,2013-04-26 19:32:00,
2013-04-26 15:38:00,64.4,37.5,30.35,NNW,336,6.0,7.0,37,0.00,,,0.00,682,Wunderground v.1.15,2013-04-26 19:38:00,
2013-04-26 15:44:00,64.2,38.7,30.35,WNW,287,6.0,8.0,39,0.00,,,0.00,673,Wunderground v.1.15,2013-04-26 19:44:00,
2013-04-26 15:50:00,64.1,37.3,30.35,WNW,287,6.0,9.0,37,0.00,,,0.00,659,Wunderground v.1.15,2013-04-26 19:50:00,
2013-04-26 15:56:00,64.3,37.5,30.34,West,275,6.0,9.0,37,0.00,,,0.00,647,Wunderground v.1.15,2013-04-26 19:56:00,
2013-04-26 16:02:00,64.3,36.8,30.34,WNW,283,6.0,7.0,36,0.00,,,0.00,626,Wunderground v.1.15,2013-04-26 20:02:00,
2013-04-26 16:08:00,64.6,37.7,30.34,NW,309,5.0,7.0,37,0.00,,,0.00,615,Wunderground v.1.15,2013-04-26 20:08:00,
2013-04-26 16:14:00,64.7,36.4,30.35,WNW,300,5.0,6.0,35,0.00,,,0.00,598,Wunderground v.1.15,2013-04-26 20:14:00,
2013-04-26 16:20:00,64.5,36.9,30.34,WSW,242,6.0,6.0,36,0.00,,,0.00,575,Wunderground v.1.15,2013-04-26 20:20:00,
2013-04-26 16:26:00,64.2,36.7,30.34,NNW,339,7.0,13.0,36,0.00,,,0.00,563,Wunderground v.1.15,2013-04-26 20:26:00,
2013-04-26 16:32:00,64.1,36.6,30.35,WNW,292,6.0,9.0,36,0.00,,,0.00,547,Wunderground v.1.15,2013-04-26 20:32:00,
2013-04-26 16:38:00,64.1,35.9,30.35,WNW,282,6.0,9.0,35,0.00,,,0.00,513,Wunderground v.1.15,2013-04-26 20:38:00,
2013-04-26 16:44:00,64.0,35.0,30.35,NW,323,6.0,6.0,34,0.00,,,0.00,512,Wunderground v.1.15,2013-04-26 20:44:00,
2013-04-26 16:50:00,64.0,33.5,30.35,WSW,254,6.0,6.0,32,0.00,,,0.00,490,Wunderground v.1.15,2013-04-26 20:50:00,
2013-04-26 16:56:00,63.8,34.9,30.35,NW,314,7.0,10.0,34,0.00,,,0.00,464,Wunderground v.1.15,2013-04-26 20:56:00,
2013-04-26 17:02:00,63.8,36.3,30.35,WSW,248,6.0,6.0,36,0.00,,,0.00,454,Wunderground v.1.15,2013-04-26 21:02:00,
2013-04-26 17:08:00,64.0,32.7,30.35,West,279,5.0,9.0,31,0.00,,,0.00,427,Wunderground v.1.15,2013-04-26 21:08:00,
2013-04-26 17:14:00,64.1,33.6,30.35,NW,309,6.0,6.0,32,0.00,,,0.00,415,Wunderground v.1.15,2013-04-26 21:14:00,
2013-04-26 17:20:00,64.1,33.6,30.35,WNW,292,4.0,4.0,32,0.00,,,0.00,392,Wunderground v.1.15,2013-04-26 21:20:00,
2013-04-26 17:26:00,64.1,32.0,30.35,NW,319,4.0,7.0,30,0.00,,,0.00,371,Wunderground v.1.15,2013-04-26 21:26:00,
2013-04-26 17:32:00,64.0,31.9,30.35,West,275,4.0,6.0,30,0.00,,,0.00,322,Wunderground v.1.15,2013-04-26 21:32:00,
2013-04-26 17:38:00,64.1,31.2,30.35,WNW,296,5.0,9.0,29,0.00,,,0.00,188,Wunderground v.1.15,2013-04-26 21:38:00,
2013-04-26 17:44:00,63.9,30.1,30.35,ENE,66,5.0,7.0,28,0.00,,,0.00,186,Wunderground v.1.15,2013-04-26 21:44:00,
2013-04-26 17:50:00,63.6,30.7,30.35,WNW,289,5.0,5.0,29,0.00,,,0.00,77,Wunderground v.1.15,2013-04-26 21:50:00,
2013-04-26 17:56:00,63.5,32.3,30.35,WNW,302,4.0,5.0,31,0.00,,,0.00,120,Wunderground v.1.15,2013-04-26 21:56:00,
2013-04-26 18:02:00,63.4,29.7,30.35,WNW,284,4.0,6.0,28,0.00,,,0.00,146,Wunderground v.1.15,2013-04-26 22:02:00,
2013-04-26 18:08:00,63.3,30.5,30.35,WNW,303,5.0,6.0,29,0.00,,,0.00,171,Wunderground v.1.15,2013-04-26 22:08:00,
2013-04-26 18:14:00,63.1,29.4,30.35,NW,313,4.0,4.0,28,0.00,,,0.00,76,Wunderground v.1.15,2013-04-26 22:14:00,
2013-04-26 18:20:00,63.0,31.0,30.35,NW,321,4.0,5.0,30,0.00,,,0.00,65,Wunderground v.1.15,2013-04-26 22:20:00,
2013-04-26 18:26:00,63.0,31.9,30.35,NW,322,2.0,5.0,31,0.00,,,0.00,151,Wunderground v.1.15,2013-04-26 22:26:00,
2013-04-26 18:32:00,63.0,31.9,30.34,NW,317,2.0,3.0,31,0.00,,,0.00,151,Wunderground v.1.15,2013-04-26 22:32:00,
2013-04-26 18:38:00,63.0,30.2,30.34,NW,323,2.0,8.0,29,0.00,,,0.00,49,Wunderground v.1.15,2013-04-26 22:38:00,
2013-04-26 18:44:00,62.8,29.2,30.34,WNW,289,3.0,5.0,28,0.00,,,0.00,49,Wunderground v.1.15,2013-04-26 22:44:00,
2013-04-26 18:50:00,62.5,28.9,30.34,West,281,4.0,4.0,28,0.00,,,0.00,42,Wunderground v.1.15,2013-04-26 22:50:00,
2013-04-26 18:56:00,62.3,29.6,30.34,WNW,292,3.0,4.0,29,0.00,,,0.00,42,Wunderground v.1.15,2013-04-26 22:56:00,
2013-04-26 19:02:00,62.2,31.2,30.34,WNW,295,2.0,4.0,31,0.00,,,0.00,35,Wunderground v.1.15,2013-04-26 23:02:00,
2013-04-26 19:08:00,62.0,31.0,30.34,NW,307,1.0,4.0,31,0.00,,,0.00,39,Wunderground v.1.15,2013-04-26 23:08:00,
2013-04-26 19:14:00,61.9,30.1,30.34,WNW,303,1.0,5.0,30,0.00,,,0.00,28,Wunderground v.1.15,2013-04-26 23:14:00,
2013-04-26 19:20:00,61.6,29.0,30.35,NW,317,2.0,2.0,29,0.00,,,0.00,23,Wunderground v.1.15,2013-04-26 23:20:00,
2013-04-26 19:26:00,61.3,29.6,30.35,NW,317,1.0,4.0,30,0.00,,,0.00,19,Wunderground v.1.15,2013-04-26 23:26:00,
2013-04-26 19:32:00,61.1,29.4,30.35,WNW,294,1.0,1.0,30,0.00,,,0.00,14,Wunderground v.1.15,2013-04-26 23:32:00,
2013-04-26 19:38:00,60.8,29.9,30.36,NW,307,0.0,1.0,31,0.00,,,0.00,11,Wunderground v.1.15,2013-04-26 23:38:00,
2013-04-26 19:44:00,60.6,29.8,30.36,NW,307,0.0,0.0,31,0.00,,,0.00,5,Wunderground v.1.15,2013-04-26 23:44:00,
2013-04-26 19:50:00,60.3,30.3,30.36,NW,307,0.0,0.0,32,0.00,,,0.00,0,Wunderground v.1.15,2013-04-26 23:50:00,
2013-04-26 20:06:00,59.4,31.0,30.37,NW,307,0.0,0.0,34,0.00,,,0.00,0,Wunderground v.1.15,2013-04-27 00:06:00,
2013-04-26 20:12:00,59.1,30.7,30.37,NW,307,0.0,0.0,34,0.00,,,0.00,0,Wunderground v.1.15,2013-04-27 00:12:00,
2013-04-26 20:18:00,58.7,31.1,30.37,NW,307,0.0,0.0,35,0.00,,,0.00,0,Wunderground v.1.15,2013-04-27 00:18:00,
2013-04-26 20:24:00,58.3,31.4,30.37,NW,307,0.0,0.0,36,0.00,,,0.00,0,Wunderground v.1.15,2013-04-27 00:24:00,
2013-04-26 20:30:00,57.8,31.0,30.37,NW,307,0.0,0.0,36,0.00,,,0.00,0,Wunderground v.1.15,2013-04-27 00:30:00,
2013-04-26 20:36:00,57.4,32.0,30.37,NW,307,0.0,0.0,38,0.00,,,0.00,0,Wunderground v.1.15,2013-04-27 00:36:00,
2013-04-26 20:42:00,57.0,31.6,30.38,NW,307,0.0,0.0,38,0.00,,,0.00,0,Wunderground v.1.15,2013-04-27 00:42:00,
2013-04-26 20:48:00,56.7,32.0,30.38,NW,307,0.0,0.0,39,0.00,,,0.00,0,Wunderground v.1.15,2013-04-27 00:48:00,
2013-04-26 20:54:00,56.2,32.2,30.38,NW,307,0.0,0.0,40,0.00,,,0.00,0,Wunderground v.1.15,2013-04-27 00:54:00,
2013-04-26 21:00:00,55.9,32.5,30.38,NW,307,0.0,0.0,41,0.00,,,0.00,0,Wunderground v.1.15,2013-04-27 01:00:00,
2013-04-26 21:06:00,55.6,32.8,30.39,NW,307,0.0,0.0,42,0.00,,,0.00,0,Wunderground v.1.15,2013-04-27 01:06:00,
2013-04-26 21:12:00,55.3,32.6,30.38,NW,307,0.0,0.0,42,0.00,,,0.00,0,Wunderground v.1.15,2013-04-27 01:12:00,
2013-04-26 21:18:00,54.9,32.8,30.39,NW,307,0.0,0.0,43,0.00,,,0.00,0,Wunderground v.1.15,2013-04-27 01:18:00,
2013-04-26 21:24:00,54.5,33.6,30.39,NW,307,0.0,0.0,45,0.00,,,0.00,0,Wunderground v.1.15,2013-04-27 01:24:00,
2013-04-26 21:30:00,54.2,33.9,30.39,NW,307,0.0,0.0,46,0.00,,,0.00,0,Wunderground v.1.15,2013-04-27 01:30:00,
2013-04-26 21:36:00,53.6,34.4,30.39,NW,307,0.0,0.0,48,0.00,,,0.00,0,Wunderground v.1.15,2013-04-27 01:36:00,
2013-04-26 21:42:00,52.9,34.2,30.39,NW,307,0.0,0.0,49,0.00,,,0.00,0,Wunderground v.1.15,2013-04-27 01:42:00,
2013-04-26 21:48:00,52.6,34.5,30.39,NW,307,0.0,0.0,50,0.00,,,0.00,0,Wunderground v.1.15,2013-04-27 01:48:00,
2013-04-26 21:54:00,52.2,35.6,30.40,NW,307,0.0,0.0,53,0.00,,,0.00,0,Wunderground v.1.15,2013-04-27 01:54:00,
2013-04-26 22:00:00,51.8,36.1,30.40,NW,307,0.0,0.0,55,0.00,,,0.00,0,Wunderground v.1.15,2013-04-27 02:00:00,
2013-04-26 22:06:00,51.3,36.6,30.40,NW,307,0.0,0.0,57,0.00,,,0.00,0,Wunderground v.1.15,2013-04-27 02:06:00,
2013-04-26 22:12:00,50.9,36.2,30.40,NW,307,0.0,0.0,57,0.00,,,0.00,0,Wunderground v.1.15,2013-04-27 02:12:00,
2013-04-26 22:18:00,50.4,36.6,30.40,NW,307,0.0,0.0,59,0.00,,,0.00,0,Wunderground v.1.15,2013-04-27 02:18:00,
2013-04-26 22:24:00,49.8,36.9,30.40,NW,307,0.0,0.0,61,0.00,,,0.00,0,Wunderground v.1.15,2013-04-27 02:24:00,
2013-04-26 22:29:00,49.4,36.9,30.40,NW,307,0.0,0.0,62,0.00,,,0.00,0,Wunderground v.1.15,2013-04-27 02:29:00,
2013-04-26 22:36:00,49.0,36.9,30.40,NW,307,0.0,0.0,63,0.00,,,0.00,0,Wunderground v.1.15,2013-04-27 02:36:00,
2013-04-26 22:42:00,48.7,37.1,30.40,NW,307,0.0,0.0,64,0.00,,,0.00,0,Wunderground v.1.15,2013-04-27 02:42:00,
2013-04-26 22:48:00,48.4,36.8,30.40,NW,307,0.0,0.0,64,0.00,,,0.00,0,Wunderground v.1.15,2013-04-27 02:48:00,
2013-04-26 22:54:00,48.1,37.3,30.39,NW,307,0.0,0.0,66,0.00,,,0.00,0,Wunderground v.1.15,2013-04-27 02:54:00,
2013-04-26 23:00:00,47.8,37.0,30.40,NW,307,0.0,0.0,66,0.00,,,0.00,0,Wunderground v.1.15,2013-04-27 03:00:00,
2013-04-26 23:06:00,47.4,37.0,30.40,NW,307,0.0,0.0,67,0.00,,,0.00,0,Wunderground v.1.15,2013-04-27 03:06:00,
2013-04-26 23:12:00,47.2,37.2,30.40,SW,217,1.0,2.0,68,0.00,,,0.00,0,Wunderground v.1.15,2013-04-27 03:12:00,
2013-04-26 23:18:00,47.4,38.1,30.40,NW,310,1.0,2.0,70,0.00,,,0.00,0,Wunderground v.1.15,2013-04-27 03:18:00,
2013-04-26 23:24:00,47.6,38.7,30.40,NW,310,0.0,1.0,71,0.00,,,0.00,0,Wunderground v.1.15,2013-04-27 03:24:00,
2013-04-26 23:30:00,47.9,39.3,30.40,NW,310,0.0,0.0,72,0.00,,,0.00,0,Wunderground v.1.15,2013-04-27 03:30:00,
2013-04-26 23:36:00,48.2,40.6,30.40,NW,310,0.0,0.0,75,0.00,,,0.00,0,Wunderground v.1.15,2013-04-27 03:36:00,
2013-04-26 23:42:00,48.6,41.4,30.39,NW,310,0.0,0.0,76,0.00,,,0.00,0,Wunderground v.1.15,2013-04-27 03:42:00,
2013-04-26 23:48:00,48.8,41.6,30.40,NW,310,0.0,0.0,76,0.00,,,0.00,0,Wunderground v.1.15,2013-04-27 03:48:00,
2013-04-26 23:54:00,49.1,42.9,30.40,NW,310,0.0,0.0,79,0.00,,,0.00,0,Wunderground v.1.15,2013-04-27 03:54:00,